Time;durP1;ratioP1;P1;durP2;ratioP2;P2;SDS_P1;SDS_P2;PMS_P1;PMS_P2;Temp;Humidity;BMP_temperature;BMP_pressure;BME280_temperature;BME280_humidity;BME280_pressure;Samples;Min_cycle;Max_cycle;Signal;HPM_P1;HPM_P2
2023/11/23 00:01:37;;;;;;;16.77;12.20;;;4.40;99.90;;;;;;5032528;28;20206;-58
2023/11/23 00:04:06;;;;;;;11.17;9.40;;;4.40;99.90;;;;;;5064429;22;20322;-60
2023/11/23 00:06:37;;;;;;;12.83;10.30;;;4.40;99.90;;;;;;5034279;28;20256;-60
2023/11/23 00:09:06;;;;;;;13.00;9.30;;;4.40;99.90;;;;;;5032527;28;20201;-60
2023/11/23 00:11:32;;;;;;;13.30;9.03;;;4.40;99.90;;;;;;5050502;28;20208;-60
2023/11/23 00:14:00;;;;;;;13.13;10.30;;;4.40;99.90;;;;;;5050020;28;20562;-61
2023/11/23 00:16:27;;;;;;;15.23;10.83;;;4.40;99.90;;;;;;5050971;28;20201;-61
2023/11/23 00:18:54;;;;;;;15.07;10.37;;;4.40;99.90;;;;;;5051118;28;20223;-60
2023/11/23 00:21:22;;;;;;;14.00;9.80;;;4.40;99.90;;;;;;5051223;28;20283;-61
2023/11/23 00:23:49;;;;;;;10.93;9.33;;;4.40;99.90;;;;;;5050195;28;20223;-60
2023/11/23 00:26:16;;;;;;;15.03;10.13;;;4.30;99.90;;;;;;5044429;28;20350;-60
2023/11/23 00:28:43;;;;;;;12.20;9.20;;;4.30;99.90;;;;;;5050946;28;20201;-60
2023/11/23 00:31:10;;;;;;;13.23;10.13;;;4.30;99.90;;;;;;5050743;28;20683;-60
2023/11/23 00:33:37;;;;;;;12.50;9.80;;;4.30;99.90;;;;;;5041613;28;20247;-61
2023/11/23 00:36:05;;;;;;;11.20;9.63;;;4.30;99.90;;;;;;5050697;28;20204;-61
2023/11/23 00:38:33;;;;;;;11.60;9.03;;;4.20;99.90;;;;;;5051111;28;20221;-60
2023/11/23 00:41:01;;;;;;;12.87;9.50;;;4.20;99.90;;;;;;5049784;28;20257;-61
2023/11/23 00:43:28;;;;;;;14.70;10.07;;;4.20;99.90;;;;;;5047113;28;20767;-61
2023/11/23 00:45:55;;;;;;;13.63;11.17;;;4.30;99.90;;;;;;5050112;28;20262;-60
2023/11/23 00:48:22;;;;;;;14.13;10.67;;;4.30;99.90;;;;;;5050716;28;20196;-60
2023/11/23 00:50:49;;;;;;;25.13;10.93;;;4.30;99.90;;;;;;5050583;28;20206;-60
2023/11/23 00:53:16;;;;;;;13.77;10.43;;;4.30;99.90;;;;;;5050818;28;20284;-60
2023/11/23 00:55:44;;;;;;;13.10;10.03;;;4.30;99.90;;;;;;5045936;28;20720;-61
2023/11/23 00:58:11;;;;;;;12.27;9.50;;;4.30;99.90;;;;;;5045288;28;20728;-61
2023/11/23 01:00:38;;;;;;;12.27;9.67;;;4.30;99.90;;;;;;5048210;28;20343;-60
2023/11/23 01:03:05;;;;;;;16.20;10.77;;;4.30;99.90;;;;;;5050924;28;20286;-60
2023/11/23 01:05:32;;;;;;;15.00;10.30;;;4.30;99.90;;;;;;5050979;28;20272;-60
2023/11/23 01:07:59;;;;;;;11.47;9.30;;;4.30;99.90;;;;;;5044990;28;20664;-60
2023/11/23 01:10:26;;;;;;;13.87;10.97;;;4.30;99.90;;;;;;5047245;28;20264;-60
2023/11/23 01:12:55;;;;;;;12.87;9.90;;;4.30;99.90;;;;;;5050823;28;20311;-60
2023/11/23 01:15:22;;;;;;;15.33;9.83;;;4.30;99.90;;;;;;5049048;28;20237;-61
2023/11/23 01:17:49;;;;;;;13.90;10.13;;;4.30;99.90;;;;;;5042320;28;20286;-60
2023/11/23 01:20:16;;;;;;;12.73;10.13;;;4.30;99.90;;;;;;5048819;28;20297;-60
2023/11/23 01:22:42;;;;;;;16.73;10.33;;;4.30;99.90;;;;;;5050493;28;20247;-60
2023/11/23 01:25:09;;;;;;;14.97;10.70;;;4.30;99.90;;;;;;5050898;28;20254;-60
2023/11/23 01:27:36;;;;;;;16.50;11.67;;;4.30;99.90;;;;;;5050349;28;20814;-60
2023/11/23 01:30:05;;;;;;;14.83;11.37;;;4.40;99.90;;;;;;5051020;28;20196;-60
2023/11/23 01:32:32;;;;;;;16.23;11.30;;;4.40;99.90;;;;;;5047711;28;20721;-60
2023/11/23 01:34:59;;;;;;;15.83;11.57;;;4.50;99.90;;;;;;5049722;28;20612;-60
2023/11/23 01:37:26;;;;;;;15.23;10.10;;;4.50;99.90;;;;;;5050378;28;20347;-60
2023/11/23 01:39:53;;;;;;;18.20;12.50;;;4.50;99.90;;;;;;5050618;28;20267;-60
2023/11/23 01:42:20;;;;;;;16.00;11.13;;;4.40;99.90;;;;;;5050861;28;20221;-60
2023/11/23 01:44:48;;;;;;;19.90;12.70;;;4.30;99.90;;;;;;5050794;28;20239;-60
2023/11/23 01:47:17;;;;;;;17.43;12.53;;;4.30;99.90;;;;;;5040250;28;20213;-60
2023/11/23 01:49:45;;;;;;;21.37;14.07;;;4.20;99.90;;;;;;5049551;28;20265;-60
2023/11/23 01:52:13;;;;;;;19.70;13.20;;;4.20;99.90;;;;;;5049561;28;20260;-60
2023/11/23 01:54:40;;;;;;;16.00;12.37;;;4.30;99.90;;;;;;5050443;28;20259;-60
2023/11/23 01:57:08;;;;;;;18.60;12.73;;;4.30;99.90;;;;;;5049273;28;20216;-60
2023/11/23 01:59:36;;;;;;;22.07;12.93;;;4.30;99.90;;;;;;5048673;28;20314;-60
2023/11/23 02:02:04;;;;;;;18.00;12.33;;;4.40;99.90;;;;;;5050330;28;20246;-60
2023/11/23 02:04:33;;;;;;;15.73;11.53;;;4.40;99.90;;;;;;5048534;28;20228;-60
2023/11/23 02:07:01;;;;;;;16.80;12.63;;;4.40;99.90;;;;;;5050428;28;20620;-60
2023/11/23 02:09:29;;;;;;;19.60;12.70;;;4.40;99.90;;;;;;5050882;28;20248;-60
2023/11/23 02:11:56;;;;;;;18.33;11.77;;;4.30;99.90;;;;;;5048191;28;20227;-60
2023/11/23 02:14:23;;;;;;;16.17;11.60;;;4.40;99.90;;;;;;5050310;28;20205;-60
2023/11/23 02:16:50;;;;;;;17.70;11.37;;;4.40;99.90;;;;;;5044920;28;20196;-60
2023/11/23 02:19:17;;;;;;;16.00;11.20;;;4.30;99.90;;;;;;5046042;28;20700;-60
2023/11/23 02:21:46;;;;;;;18.50;11.33;;;4.40;99.90;;;;;;5053459;28;20237;-60
2023/11/23 02:24:14;;;;;;;17.20;11.03;;;4.40;99.90;;;;;;5054186;28;20231;-60
2023/11/23 02:26:41;;;;;;;15.00;11.10;;;4.40;99.90;;;;;;5050063;28;20200;-60
2023/11/23 02:29:08;;;;;;;14.67;10.93;;;4.40;99.90;;;;;;5047868;28;20227;-60
2023/11/23 02:31:36;;;;;;;11.47;8.93;;;4.30;99.90;;;;;;5052307;28;20203;-61
2023/11/23 02:34:03;;;;;;;14.83;10.37;;;4.40;99.90;;;;;;5053511;28;20235;-60
2023/11/23 02:36:30;;;;;;;13.27;10.30;;;4.40;99.90;;;;;;5053301;28;20211;-61
2023/11/23 02:38:57;;;;;;;12.67;10.27;;;4.40;99.90;;;;;;5048153;28;20219;-60
2023/11/23 02:41:25;;;;;;;15.00;9.53;;;4.40;99.90;;;;;;5050394;28;20258;-60
2023/11/23 02:43:52;;;;;;;15.37;11.73;;;4.50;99.90;;;;;;5053598;28;20218;-60
2023/11/23 02:46:19;;;;;;;15.77;12.60;;;4.50;99.90;;;;;;5053347;28;20630;-60
2023/11/23 02:48:46;;;;;;;15.87;12.20;;;4.50;99.90;;;;;;5052206;28;20267;-60
2023/11/23 02:51:14;;;;;;;16.90;11.60;;;4.50;99.90;;;;;;5049136;28;20256;-60
2023/11/23 02:53:43;;;;;;;14.70;10.67;;;4.50;99.90;;;;;;5053389;28;20302;-61
2023/11/23 02:56:11;;;;;;;16.00;11.27;;;4.50;99.90;;;;;;5053139;28;20295;-61
2023/11/23 02:58:40;;;;;;;16.07;11.47;;;4.50;99.90;;;;;;5053237;28;20295;-60
2023/11/23 03:01:07;;;;;;;14.97;10.17;;;4.60;99.90;;;;;;5053217;28;20648;-60
2023/11/23 03:03:34;;;;;;;14.93;11.00;;;4.60;99.90;;;;;;5051297;28;20567;-60
2023/11/23 03:06:01;;;;;;;14.53;11.27;;;4.60;99.90;;;;;;5052704;28;20675;-60
2023/11/23 03:08:28;;;;;;;13.23;9.53;;;4.60;99.90;;;;;;5053284;28;20209;-60
2023/11/23 03:10:55;;;;;;;15.10;10.67;;;4.60;99.90;;;;;;5053089;28;20222;-60
2023/11/23 03:13:22;;;;;;;12.70;8.97;;;4.60;99.90;;;;;;5053010;28;20266;-60
2023/11/23 03:15:52;;;;;;;14.13;8.17;;;4.60;99.90;;;;;;5050525;28;20252;-60
2023/11/23 03:18:19;;;;;;;12.50;9.47;;;4.50;99.90;;;;;;5044779;28;20262;-60
2023/11/23 03:20:46;;;;;;;11.80;8.00;;;4.50;99.90;;;;;;5051911;28;20228;-61
2023/11/23 03:23:13;;;;;;;11.23;8.57;;;4.40;99.90;;;;;;5052830;28;20250;-60
2023/11/23 03:25:40;;;;;;;14.67;9.67;;;4.40;99.90;;;;;;5052420;28;20588;-60
2023/11/23 03:28:07;;;;;;;11.23;8.87;;;4.40;99.90;;;;;;5050834;28;20203;-60
2023/11/23 03:30:35;;;;;;;20.30;11.27;;;4.40;99.90;;;;;;5052377;28;20258;-61
2023/11/23 03:33:04;;;;;;;16.13;10.90;;;4.30;99.90;;;;;;5051539;28;20221;-60
2023/11/23 03:35:31;;;;;;;17.07;12.30;;;4.30;99.90;;;;;;5052155;28;20250;-60
2023/11/23 03:37:58;;;;;;;15.23;11.37;;;4.30;99.90;;;;;;5052213;28;20207;-60
2023/11/23 03:40:25;;;;;;;13.97;10.37;;;4.30;99.90;;;;;;5051501;28;20251;-61
2023/11/23 03:42:51;;;;;;;12.00;9.87;;;4.20;99.90;;;;;;5043083;28;20268;-61
2023/11/23 03:45:18;;;;;;;14.23;10.90;;;4.20;99.90;;;;;;5052386;28;20621;-60
2023/11/23 03:47:47;;;;;;;16.03;10.07;;;4.10;99.90;;;;;;5052128;28;20209;-60
2023/11/23 03:50:15;;;;;;;15.80;11.13;;;4.00;99.90;;;;;;5052598;28;20281;-61
2023/11/23 03:52:42;;;;;;;14.97;10.03;;;4.00;99.90;;;;;;5050334;28;20232;-60
2023/11/23 03:55:09;;;;;;;13.70;9.47;;;3.90;99.90;;;;;;5049477;28;20800;-60
2023/11/23 03:57:37;;;;;;;17.63;11.33;;;3.90;99.90;;;;;;5050686;28;20254;-60
2023/11/23 04:00:07;;;;;;;14.80;11.37;;;3.80;99.90;;;;;;5052372;28;20322;-60
2023/11/23 04:02:34;;;;;;;15.43;10.97;;;3.70;99.90;;;;;;5051141;28;20227;-60
2023/11/23 04:05:01;;;;;;;15.10;11.00;;;3.70;99.90;;;;;;5052202;28;20259;-61
2023/11/23 04:07:30;;;;;;;17.33;11.93;;;3.70;99.90;;;;;;5050529;28;20207;-61
2023/11/23 04:09:57;;;;;;;16.10;12.47;;;3.70;99.90;;;;;;5050906;28;20203;-60
2023/11/23 04:12:24;;;;;;;20.33;12.27;;;3.80;99.90;;;;;;5051801;28;20302;-60
2023/11/23 04:14:51;;;;;;;15.07;11.43;;;3.80;99.90;;;;;;5052152;28;20561;-60
2023/11/23 04:17:18;;;;;;;16.70;11.33;;;3.80;99.90;;;;;;5051682;28;20231;-60
2023/11/23 04:19:45;;;;;;;17.37;11.90;;;3.80;99.90;;;;;;5047578;28;20255;-61
2023/11/23 04:22:12;;;;;;;15.77;11.47;;;3.90;99.90;;;;;;5047984;28;20642;-60
2023/11/23 04:24:41;;;;;;;15.07;11.23;;;3.90;99.90;;;;;;5051381;28;20747;-60
2023/11/23 04:27:09;;;;;;;18.13;13.60;;;3.90;99.90;;;;;;5050086;28;20685;-60
2023/11/23 04:29:36;;;;;;;16.97;12.97;;;3.90;99.90;;;;;;5048900;28;20200;-60
2023/11/23 04:32:04;;;;;;;17.90;12.20;;;3.90;99.90;;;;;;5048022;28;20207;-60
2023/11/23 04:34:31;;;;;;;16.77;12.30;;;3.90;99.90;;;;;;5042309;28;20293;-60
2023/11/23 04:36:58;;;;;;;19.23;13.20;;;4.00;99.90;;;;;;5043411;28;20663;-60
2023/11/23 04:39:25;;;;;;;16.40;12.67;;;4.00;99.90;;;;;;5050612;28;20227;-60
2023/11/23 04:41:54;;;;;;;19.03;12.80;;;4.00;99.90;;;;;;5052467;28;20257;-61
2023/11/23 04:44:21;;;;;;;16.23;11.33;;;4.00;99.90;;;;;;5051402;28;20208;-61
2023/11/23 04:46:48;;;;;;;21.03;14.47;;;3.90;99.90;;;;;;5048049;28;20297;-60
2023/11/23 04:49:16;;;;;;;21.70;13.50;;;4.00;99.90;;;;;;5039344;28;20213;-60
2023/11/23 04:51:43;;;;;;;21.73;14.83;;;4.00;99.90;;;;;;5050519;28;20200;-60
2023/11/23 04:54:10;;;;;;;19.63;14.00;;;4.00;99.90;;;;;;5050974;28;20227;-61
2023/11/23 04:56:39;;;;;;;17.60;12.57;;;4.00;99.90;;;;;;5049686;28;20207;-60
2023/11/23 04:59:07;;;;;;;18.63;12.83;;;4.00;99.90;;;;;;5050100;28;20207;-61
2023/11/23 05:01:37;;;;;;;19.50;13.50;;;4.00;99.90;;;;;;5050614;28;20227;-61
2023/11/23 05:04:05;;;;;;;19.80;12.63;;;3.90;99.90;;;;;;5050729;28;20230;-61
2023/11/23 05:06:36;;;;;;;16.60;13.07;;;3.90;99.90;;;;;;5050387;28;20207;-60
2023/11/23 05:09:03;;;;;;;15.60;12.13;;;3.90;99.90;;;;;;5051041;28;20206;-61
2023/11/23 05:11:30;;;;;;;15.80;11.20;;;3.90;99.90;;;;;;5049672;28;20286;-61
2023/11/23 05:14:05;;;;;;;17.77;11.73;;;3.90;99.90;;;;;;5050579;28;20303;-61
2023/11/23 05:16:34;;;;;;;14.33;10.33;;;3.80;99.90;;;;;;5050184;28;20211;-61
2023/11/23 05:19:01;;;;;;;16.83;11.47;;;3.80;99.90;;;;;;5049719;28;20648;-61
2023/11/23 05:21:28;;;;;;;15.33;10.47;;;3.80;99.90;;;;;;5050815;28;20227;-61
2023/11/23 05:23:55;;;;;;;16.07;12.27;;;3.80;99.90;;;;;;5042661;28;20231;-61
2023/11/23 05:26:23;;;;;;;16.63;12.23;;;3.80;99.90;;;;;;5050423;28;20670;-61
2023/11/23 05:28:50;;;;;;;16.97;11.73;;;3.80;99.90;;;;;;5048898;28;20265;-61
2023/11/23 05:31:17;;;;;;;16.07;12.03;;;3.70;99.90;;;;;;5054306;28;20210;-61
2023/11/23 05:33:45;;;;;;;17.83;11.27;;;3.70;99.90;;;;;;5050672;28;20298;-60
2023/11/23 05:36:12;;;;;;;15.03;11.80;;;3.70;99.90;;;;;;5050329;28;20215;-61
2023/11/23 05:38:39;;;;;;;19.30;12.60;;;3.70;99.90;;;;;;5050559;28;20208;-61
2023/11/23 05:41:06;;;;;;;20.23;13.97;;;3.70;99.90;;;;;;5050556;28;20224;-60
2023/11/23 05:43:33;;;;;;;19.87;12.57;;;3.70;99.90;;;;;;5049271;28;20225;-61
2023/11/23 05:46:00;;;;;;;19.07;12.87;;;3.70;99.90;;;;;;5047785;28;20224;-61
2023/11/23 05:48:27;;;;;;;18.90;12.40;;;3.70;99.90;;;;;;5047877;28;20588;-60
2023/11/23 05:50:55;;;;;;;17.43;14.00;;;3.60;99.90;;;;;;5049982;28;20268;-60
2023/11/23 05:53:22;;;;;;;16.30;12.63;;;3.60;99.90;;;;;;5049890;28;20726;-60
2023/11/23 05:55:49;;;;;;;17.87;13.13;;;3.60;99.90;;;;;;5051530;28;20215;-60
2023/11/23 05:58:16;;;;;;;22.77;15.43;;;3.60;99.90;;;;;;5053995;28;20336;-59
2023/11/23 06:00:42;;;;;;;19.00;13.30;;;3.50;99.90;;;;;;5050912;28;20215;-60
2023/11/23 06:03:09;;;;;;;18.17;13.27;;;3.50;99.90;;;;;;5051858;28;20625;-60
2023/11/23 06:05:36;;;;;;;17.43;12.00;;;3.40;99.90;;;;;;5053263;28;20199;-60
2023/11/23 06:08:05;;;;;;;20.43;13.20;;;3.50;99.90;;;;;;5052999;28;20207;-60
2023/11/23 06:10:33;;;;;;;16.10;11.63;;;3.40;99.90;;;;;;5050683;28;20204;-60
2023/11/23 06:13:01;;;;;;;15.83;11.90;;;3.30;99.90;;;;;;5053504;28;20220;-60
2023/11/23 06:15:28;;;;;;;16.17;12.27;;;3.40;99.90;;;;;;5053144;28;20227;-60
2023/11/23 06:17:54;;;;;;;17.53;11.60;;;3.30;99.90;;;;;;5050420;28;20627;-59
2023/11/23 06:20:21;;;;;;;17.57;11.63;;;3.30;99.90;;;;;;5050334;28;20301;-60
2023/11/23 06:22:50;;;;;;;17.00;11.83;;;3.30;99.90;;;;;;5053080;28;20220;-60
2023/11/23 06:25:18;;;;;;;14.77;10.33;;;3.30;99.90;;;;;;5052506;28;20234;-60
2023/11/23 06:27:47;;;;;;;13.33;10.27;;;3.20;99.90;;;;;;5051522;28;20204;-60
2023/11/23 06:30:15;;;;;;;12.23;9.07;;;3.20;99.90;;;;;;5053601;28;20227;-59
2023/11/23 06:32:42;;;;;;;16.23;9.80;;;3.10;99.90;;;;;;5053042;28;20221;-59
2023/11/23 06:35:10;;;;;;;13.97;10.10;;;3.10;99.90;;;;;;5053283;28;20265;-59
2023/11/23 06:37:36;;;;;;;16.80;10.37;;;3.10;99.90;;;;;;5052523;28;20200;-59
2023/11/23 06:40:04;;;;;;;13.07;9.47;;;3.10;99.90;;;;;;5052836;28;20659;-59
2023/11/23 06:42:32;;;;;;;12.83;9.80;;;3.00;99.90;;;;;;5051868;28;20714;-59
2023/11/23 06:45:00;;;;;;;16.27;9.77;;;2.90;99.90;;;;;;5050734;28;20671;-56
2023/11/23 06:47:28;;;;;;;15.13;10.07;;;2.90;99.90;;;;;;5049361;28;20291;-57
2023/11/23 06:49:56;;;;;;;11.77;9.53;;;2.90;99.90;;;;;;5077041;22;20334;-58
2023/11/23 06:52:23;;;;;;;15.77;9.43;;;2.90;99.90;;;;;;5052500;28;20290;-58
2023/11/23 06:54:50;;;;;;;14.90;9.53;;;2.80;99.90;;;;;;5054091;28;21453;-58
2023/11/23 06:57:16;;;;;;;10.97;8.93;;;2.80;99.90;;;;;;5044048;28;20243;-58
2023/11/23 06:59:45;;;;;;;13.63;10.07;;;2.80;99.90;;;;;;5044167;28;20674;-59
2023/11/23 07:02:12;;;;;;;9.00;8.03;;;2.80;99.90;;;;;;5041853;28;20218;-59
2023/11/23 07:04:41;;;;;;;14.53;9.53;;;2.80;99.90;;;;;;5042500;28;20197;-59
2023/11/23 07:07:09;;;;;;;11.03;9.23;;;3.00;99.90;;;;;;5044492;28;20206;-58
2023/11/23 07:09:36;;;;;;;12.90;10.67;;;2.80;99.90;;;;;;5046391;28;20247;-59
2023/11/23 07:12:06;;;;;;;14.83;9.77;;;2.70;99.90;;;;;;5046035;28;20242;-58
2023/11/23 07:14:33;;;;;;;14.23;10.20;;;2.80;99.90;;;;;;5045176;28;20669;-58
2023/11/23 07:17:01;;;;;;;15.73;11.47;;;2.80;99.90;;;;;;5047534;28;20204;-59
2023/11/23 07:19:28;;;;;;;16.30;11.13;;;2.80;99.90;;;;;;5050378;28;20224;-58
2023/11/23 07:21:56;;;;;;;17.47;12.67;;;2.90;99.90;;;;;;5045041;28;20228;-58
2023/11/23 07:24:23;;;;;;;17.70;11.67;;;3.00;99.90;;;;;;5044602;28;20201;-58
2023/11/23 07:26:50;;;;;;;17.17;11.83;;;3.00;99.90;;;;;;5043447;28;20206;-58
2023/11/23 07:29:18;;;;;;;15.50;10.93;;;3.10;99.90;;;;;;5049023;28;20285;-58
2023/11/23 07:31:48;;;;;;;19.23;12.53;;;3.20;99.90;;;;;;5046479;28;20243;-59
2023/11/23 07:34:16;;;;;;;17.17;11.90;;;3.20;99.90;;;;;;5045201;28;20208;-58
2023/11/23 07:36:44;;;;;;;16.13;11.47;;;3.20;99.90;;;;;;5039910;28;20220;-58
2023/11/23 07:39:11;;;;;;;20.53;13.70;;;3.30;99.90;;;;;;5048510;28;20647;-58
2023/11/23 07:41:42;;;;;;;16.77;11.90;;;3.30;99.90;;;;;;5039821;28;20213;-58
2023/11/23 07:44:09;;;;;;;16.87;12.40;;;3.30;99.90;;;;;;5045462;28;20674;-58
2023/11/23 07:46:40;;;;;;;14.07;11.00;;;3.30;99.90;;;;;;5038878;28;20299;-58
2023/11/23 07:49:06;;;;;;;15.97;10.43;;;3.40;99.90;;;;;;5050705;28;20228;-58
2023/11/23 07:51:39;;;;;;;14.50;10.73;;;3.40;99.90;;;;;;5047069;28;20249;-58
2023/11/23 07:54:06;;;;;;;18.13;10.27;;;3.50;99.90;;;;;;5045948;28;20744;-58
2023/11/23 07:56:37;;;;;;;14.87;10.87;;;3.50;99.90;;;;;;5044132;28;20232;-58
2023/11/23 07:59:04;;;;;;;15.13;10.80;;;3.60;99.90;;;;;;5045409;28;20220;-58
2023/11/23 08:01:31;;;;;;;16.90;12.40;;;3.60;99.90;;;;;;5050173;28;20225;-58
2023/11/23 08:03:57;;;;;;;15.37;11.70;;;3.70;99.90;;;;;;5046134;28;20207;-58
2023/11/23 08:06:24;;;;;;;14.73;11.37;;;3.60;99.90;;;;;;5047100;28;20257;-58
2023/11/23 08:08:53;;;;;;;17.00;11.10;;;3.60;99.90;;;;;;5050105;28;20226;-58
2023/11/23 08:11:21;;;;;;;15.03;10.70;;;3.70;99.90;;;;;;5046612;28;20663;-58
2023/11/23 08:13:49;;;;;;;19.50;11.90;;;3.90;99.90;;;;;;5048202;28;20585;-58
2023/11/23 08:16:17;;;;;;;19.40;11.60;;;4.10;99.90;;;;;;5048946;28;20235;-58
2023/11/23 08:18:45;;;;;;;16.00;10.40;;;4.10;99.90;;;;;;5041350;28;20226;-58
2023/11/23 08:21:12;;;;;;;18.83;11.87;;;4.10;99.90;;;;;;5043341;28;20274;-58
2023/11/23 08:23:39;;;;;;;16.13;10.63;;;4.10;99.90;;;;;;5042914;28;20196;-58
2023/11/23 08:26:10;;;;;;;14.97;10.37;;;4.20;99.90;;;;;;5044019;28;20599;-59
2023/11/23 08:28:38;;;;;;;15.03;10.47;;;4.50;99.90;;;;;;5035804;28;20719;-58
2023/11/23 08:31:07;;;;;;;19.23;12.00;;;4.90;99.90;;;;;;5040141;28;20199;-58
2023/11/23 08:33:34;;;;;;;18.30;11.17;;;5.10;99.90;;;;;;5042663;28;20200;-58
2023/11/23 08:36:01;;;;;;;19.73;11.53;;;5.10;99.90;;;;;;5040154;28;20201;-58
2023/11/23 08:38:28;;;;;;;16.17;11.93;;;5.40;99.90;;;;;;5042754;28;20579;-58
2023/11/23 08:40:55;;;;;;;18.07;11.50;;;5.30;99.90;;;;;;5043014;28;20725;-57
2023/11/23 08:43:24;;;;;;;17.57;11.93;;;4.90;99.90;;;;;;5039151;28;20200;-57
2023/11/23 08:45:51;;;;;;;19.60;11.23;;;4.80;99.90;;;;;;5041204;28;20257;-58
2023/11/23 08:48:22;;;;;;;18.40;11.23;;;4.70;99.90;;;;;;5041472;28;20281;-58
2023/11/23 08:50:49;;;;;;;18.37;11.20;;;4.60;99.90;;;;;;5039173;28;20691;-58
2023/11/23 08:53:16;;;;;;;20.83;10.77;;;4.70;99.90;;;;;;5041219;28;20197;-58
2023/11/23 08:55:45;;;;;;;17.47;11.40;;;4.80;99.90;;;;;;5040058;28;20202;-58
2023/11/23 08:58:12;;;;;;;19.03;12.13;;;5.00;99.90;;;;;;5043455;28;20234;-58
2023/11/23 09:00:40;;;;;;;15.90;10.17;;;4.90;99.90;;;;;;5042884;28;20204;-59
2023/11/23 09:03:09;;;;;;;14.87;9.87;;;4.90;99.90;;;;;;5036795;28;20199;-59
2023/11/23 09:05:36;;;;;;;15.17;11.33;;;4.90;99.90;;;;;;5037481;28;20686;-59
2023/11/23 09:08:06;;;;;;;16.70;12.17;;;4.70;99.90;;;;;;5042735;28;20232;-59
2023/11/23 09:10:34;;;;;;;17.40;10.70;;;4.70;99.90;;;;;;5045148;28;20209;-58
2023/11/23 09:13:02;;;;;;;16.10;9.80;;;4.70;99.90;;;;;;5045385;28;20255;-58
2023/11/23 09:15:29;;;;;;;20.23;10.67;;;4.50;99.90;;;;;;5044380;28;20288;-58
2023/11/23 09:17:58;;;;;;;23.70;12.40;;;4.40;99.90;;;;;;5042722;28;20746;-58
2023/11/23 09:20:25;;;;;;;16.77;11.70;;;4.40;99.90;;;;;;5051096;28;20200;-58
2023/11/23 09:22:54;;;;;;;20.47;12.20;;;4.40;99.90;;;;;;5043101;28;20232;-58
2023/11/23 09:25:22;;;;;;;16.80;11.17;;;4.40;99.90;;;;;;5042038;28;20258;-58
2023/11/23 09:27:50;;;;;;;18.33;13.03;;;4.30;99.90;;;;;;5031727;28;20230;-58
2023/11/23 09:30:17;;;;;;;19.27;12.17;;;4.40;99.90;;;;;;5041509;28;20227;-59
2023/11/23 09:32:45;;;;;;;20.33;12.53;;;4.60;99.90;;;;;;5049687;28;20204;-63
2023/11/23 09:35:13;;;;;;;17.27;11.27;;;4.90;99.90;;;;;;5045497;28;20206;-62
2023/11/23 09:37:41;;;;;;;21.13;12.63;;;5.30;99.90;;;;;;5047369;28;20584;-61
2023/11/23 09:40:12;;;;;;;21.33;13.30;;;5.60;99.90;;;;;;5048638;28;20211;-63
2023/11/23 09:42:39;;;;;;;16.70;11.20;;;5.80;99.90;;;;;;5049284;28;20644;-62
2023/11/23 09:45:10;;;;;;;16.93;11.33;;;5.80;99.90;;;;;;5045511;28;20202;-62
2023/11/23 09:47:39;;;;;;;17.77;12.07;;;5.90;99.90;;;;;;5047157;28;20207;-62
2023/11/23 09:50:08;;;;;;;15.40;10.90;;;6.10;99.90;;;;;;5043538;28;20236;-62
2023/11/23 09:52:37;;;;;;;13.23;10.40;;;6.10;99.90;;;;;;5046874;28;20227;-62
2023/11/23 09:55:07;;;;;;;15.07;9.90;;;6.20;99.90;;;;;;5052300;28;20209;-62
2023/11/23 09:57:35;;;;;;;13.37;10.23;;;6.30;99.90;;;;;;5045231;28;20206;-62
2023/11/23 10:00:08;;;;;;;13.90;10.43;;;6.50;99.90;;;;;;5049978;28;20228;-63
2023/11/23 10:02:36;;;;;;;14.37;9.63;;;6.90;99.90;;;;;;5046073;28;20712;-63
2023/11/23 10:05:07;;;;;;;11.67;9.27;;;7.30;99.90;;;;;;5048491;28;20765;-63
2023/11/23 10:07:37;;;;;;;13.77;9.40;;;8.10;99.90;;;;;;5046288;28;20227;-62
2023/11/23 10:10:05;;;;;;;12.33;8.87;;;8.90;99.90;;;;;;5046285;28;20227;-63
2023/11/23 10:12:32;;;;;;;11.70;10.20;;;9.20;99.90;;;;;;5044811;28;20202;-63
2023/11/23 10:14:59;;;;;;;11.50;9.53;;;9.50;99.90;;;;;;5045741;28;20262;-63
2023/11/23 10:17:26;;;;;;;9.70;7.77;;;9.90;99.90;;;;;;5041867;28;20351;-62
2023/11/23 10:19:54;;;;;;;9.03;8.10;;;10.20;99.90;;;;;;5045197;28;20604;-61
2023/11/23 10:22:22;;;;;;;8.93;7.83;;;10.50;99.90;;;;;;5047985;28;20221;-64
2023/11/23 10:24:51;;;;;;;7.70;7.00;;;10.40;99.90;;;;;;5047463;28;20250;-63
2023/11/23 10:27:19;;;;;;;8.03;7.13;;;10.00;99.90;;;;;;5044350;28;20613;-62
2023/11/23 10:29:47;;;;;;;11.47;9.87;;;9.80;99.90;;;;;;5048271;28;20221;-62
2023/11/23 10:32:16;;;;;;;8.37;7.47;;;8.90;99.90;;;;;;5047946;28;20247;-64
2023/11/23 10:34:44;;;;;;;8.43;7.53;;;8.80;99.90;;;;;;5044239;28;20204;-58
2023/11/23 10:37:16;;;;;;;8.50;7.30;;;8.30;99.90;;;;;;5043699;28;20212;-61
2023/11/23 10:39:44;;;;;;;11.47;7.93;;;8.40;99.90;;;;;;5043829;28;20727;-63
2023/11/23 10:42:14;;;;;;;8.27;7.33;;;8.20;99.90;;;;;;5047564;28;20216;-62
2023/11/23 10:44:41;;;;;;;7.00;6.27;;;8.20;99.90;;;;;;5044482;28;20254;-62
2023/11/23 10:47:10;;;;;;;9.20;7.73;;;8.30;99.90;;;;;;5043111;28;20212;-62
2023/11/23 10:49:38;;;;;;;7.73;6.87;;;8.30;99.90;;;;;;5041116;28;20242;-61
2023/11/23 10:52:10;;;;;;;7.17;6.23;;;8.30;99.90;;;;;;5043391;28;20203;-62
2023/11/23 10:54:37;;;;;;;9.93;6.33;;;8.10;99.90;;;;;;5043393;28;20449;-63
2023/11/23 10:57:09;;;;;;;6.03;5.43;;;8.00;99.90;;;;;;5048781;28;20243;-63
2023/11/23 10:59:38;;;;;;;6.73;6.03;;;8.10;99.90;;;;;;5042506;28;20685;-63
2023/11/23 11:02:07;;;;;;;6.90;5.63;;;8.10;99.90;;;;;;5043084;28;20217;-63
2023/11/23 11:04:34;;;;;;;5.93;5.40;;;8.30;99.90;;;;;;5042865;28;20208;-63
2023/11/23 11:07:04;;;;;;;6.60;5.00;;;8.30;99.90;;;;;;5042424;28;20196;-63
2023/11/23 11:09:34;;;;;;;8.93;6.17;;;8.20;99.90;;;;;;5041991;28;20705;-63
2023/11/23 11:12:05;;;;;;;7.40;6.63;;;8.20;99.90;;;;;;5045533;28;20204;-64
2023/11/23 11:14:33;;;;;;;6.73;6.13;;;8.20;99.90;;;;;;5042665;28;20674;-62
2023/11/23 11:17:04;;;;;;;10.93;8.50;;;7.60;99.90;;;;;;5043253;28;20734;-59
2023/11/23 11:19:43;;;;;;;7.87;7.17;;;8.00;99.90;;;;;;5044640;28;20735;-63
2023/11/23 11:22:13;;;;;;;8.50;7.37;;;8.00;99.90;;;;;;5043523;28;20256;-65
2023/11/23 11:24:41;;;;;;;9.70;7.53;;;8.00;99.90;;;;;;5047631;28;20259;-57
2023/11/23 11:27:10;;;;;;;9.00;7.97;;;8.10;99.90;;;;;;5042511;28;20654;-56
2023/11/23 11:29:37;;;;;;;9.47;7.23;;;8.10;99.90;;;;;;5042891;28;20281;-57
2023/11/23 11:32:09;;;;;;;8.73;6.97;;;8.10;99.90;;;;;;5051864;28;20201;-57
2023/11/23 11:34:37;;;;;;;8.90;6.90;;;7.90;99.90;;;;;;5049657;28;20207;-56
2023/11/23 11:37:07;;;;;;;8.07;7.27;;;8.00;99.90;;;;;;5042152;28;20298;-57
2023/11/23 11:39:35;;;;;;;9.33;7.40;;;8.00;99.90;;;;;;5039082;28;20711;-57
2023/11/23 11:42:03;;;;;;;8.33;6.70;;;8.10;99.90;;;;;;5042879;28;20224;-57
2023/11/23 11:44:33;;;;;;;7.70;6.93;;;8.20;99.90;;;;;;5040504;28;20626;-56
2023/11/23 11:47:00;;;;;;;7.47;6.70;;;8.20;99.90;;;;;;5043051;28;20212;-58
2023/11/23 11:49:30;;;;;;;7.97;7.17;;;8.20;99.90;;;;;;5043950;28;20234;-56
2023/11/23 11:51:57;;;;;;;7.93;7.13;;;8.20;99.90;;;;;;5040830;28;20203;-56
2023/11/23 11:54:25;;;;;;;6.23;4.80;;;8.10;99.90;;;;;;5044415;28;20216;-57
2023/11/23 11:56:53;;;;;;;4.53;4.10;;;7.90;99.90;;;;;;5044248;28;20655;-57
2023/11/23 11:59:21;;;;;;;4.47;4.00;;;7.90;99.90;;;;;;5043662;28;20631;-57
2023/11/23 12:01:48;;;;;;;5.20;4.70;;;7.90;99.90;;;;;;5048764;28;20228;-57
2023/11/23 12:04:16;;;;;;;5.73;5.00;;;7.80;99.90;;;;;;5050249;28;20257;-63
2023/11/23 12:06:46;;;;;;;5.60;4.37;;;7.90;99.90;;;;;;5051669;28;20292;-58
2023/11/23 12:09:18;;;;;;;5.77;4.93;;;7.90;99.90;;;;;;5052470;28;20223;-58
2023/11/23 12:11:46;;;;;;;5.00;4.47;;;7.90;99.90;;;;;;5046346;28;20201;-58
2023/11/23 12:14:13;;;;;;;5.53;5.10;;;7.90;99.90;;;;;;5044841;28;20205;-58
2023/11/23 12:16:40;;;;;;;6.97;5.93;;;7.90;99.90;;;;;;5047616;28;20198;-57
2023/11/23 12:19:19;;;;;;;5.00;4.50;;;7.90;99.90;;;;;;5046122;28;20298;-57
2023/11/23 12:21:55;;;;;;;5.93;4.80;;;7.80;99.90;;;;;;5048828;28;20296;-58
2023/11/23 12:24:22;;;;;;;6.33;5.37;;;7.80;99.90;;;;;;5044148;28;20207;-57
2023/11/23 12:26:51;;;;;;;6.00;5.13;;;7.80;99.90;;;;;;5048322;28;20659;-58
2023/11/23 12:29:22;;;;;;;7.00;5.27;;;7.70;99.90;;;;;;5049106;28;20222;-57
2023/11/23 12:31:49;;;;;;;8.93;5.93;;;7.70;99.90;;;;;;5049524;28;20229;-58
2023/11/23 12:34:16;;;;;;;6.60;5.90;;;7.80;99.90;;;;;;5047726;28;20333;-57
2023/11/23 12:36:44;;;;;;;5.53;4.87;;;7.80;99.90;;;;;;5045003;28;20198;-57
2023/11/23 12:39:13;;;;;;;6.53;5.23;;;7.60;99.90;;;;;;5045563;28;20219;-57
2023/11/23 12:41:42;;;;;;;5.97;5.43;;;7.50;99.90;;;;;;5049781;28;20200;-57
2023/11/23 12:44:10;;;;;;;7.40;6.07;;;7.70;99.90;;;;;;5041071;28;20200;-58
2023/11/23 12:46:41;;;;;;;7.27;6.00;;;7.80;99.90;;;;;;5046121;28;20200;-57